sensor_id;sensor_type;location;lat;lon;timestamp;P1;durP1;ratioP1;P2;durP2;ratioP2
22070;SDS011;11200;51.488;6.668;2023-04-24T03:52:26;8.30;;;5.90;;
22070;SDS011;11200;51.488;6.668;2023-04-24T03:54:51;8.90;;;6.47;;
22070;SDS011;11200;51.488;6.668;2023-04-24T03:57:17;7.85;;;6.00;;
22070;SDS011;11200;51.488;6.668;2023-04-24T03:59:43;9.93;;;6.05;;
22070;SDS011;11200;51.488;6.668;2023-04-24T04:04:42;7.63;;;5.60;;
22070;SDS011;11200;51.488;6.668;2023-04-24T04:07:11;7.65;;;5.85;;
22070;SDS011;11200;51.488;6.668;2023-04-24T04:09:40;8.38;;;5.95;;
22070;SDS011;11200;51.488;6.668;2023-04-24T04:12:09;8.75;;;6.05;;
22070;SDS011;11200;51.488;6.668;2023-04-24T04:14:34;7.32;;;5.93;;
22070;SDS011;11200;51.488;6.668;2023-04-24T04:17:00;9.98;;;6.13;;
22070;SDS011;11200;51.488;6.668;2023-04-24T04:19:25;9.48;;;5.93;;
22070;SDS011;11200;51.488;6.668;2023-04-24T04:21:51;8.48;;;5.50;;
22070;SDS011;11200;51.488;6.668;2023-04-24T04:24:18;8.57;;;5.53;;
22070;SDS011;11200;51.488;6.668;2023-04-24T04:26:45;8.35;;;5.65;;
22070;SDS011;11200;51.488;6.668;2023-04-24T04:29:12;8.32;;;5.80;;
22070;SDS011;11200;51.488;6.668;2023-04-24T04:31:38;7.30;;;5.63;;
22070;SDS011;11200;51.488;6.668;2023-04-24T04:34:04;8.30;;;6.53;;
22070;SDS011;11200;51.488;6.668;2023-04-24T04:36:29;7.18;;;5.65;;
22070;SDS011;11200;51.488;6.668;2023-04-24T04:38:55;7.88;;;5.82;;
22070;SDS011;11200;51.488;6.668;2023-04-24T04:41:21;6.78;;;5.43;;
22070;SDS011;11200;51.488;6.668;2023-04-24T04:43:47;7.53;;;5.88;;
22070;SDS011;11200;51.488;6.668;2023-04-24T04:46:14;6.22;;;5.40;;
22070;SDS011;11200;51.488;6.668;2023-04-24T04:48:44;5.70;;;5.00;;
22070;SDS011;11200;51.488;6.668;2023-04-24T04:51:09;8.75;;;5.93;;
22070;SDS011;11200;51.488;6.668;2023-04-24T04:53:35;7.45;;;5.50;;
22070;SDS011;11200;51.488;6.668;2023-04-24T04:56:00;8.63;;;5.55;;
22070;SDS011;11200;51.488;6.668;2023-04-24T04:58:26;6.97;;;5.60;;
22070;SDS011;11200;51.488;6.668;2023-04-24T05:00:51;8.00;;;5.10;;
22070;SDS011;11200;51.488;6.668;2023-04-24T05:03:18;8.65;;;5.63;;
22070;SDS011;11200;51.488;6.668;2023-04-24T05:05:44;8.82;;;5.50;;
22070;SDS011;11200;51.488;6.668;2023-04-24T05:08:10;8.82;;;5.18;;
22070;SDS011;11200;51.488;6.668;2023-04-24T05:10:37;7.22;;;5.55;;
22070;SDS011;11200;51.488;6.668;2023-04-24T05:13:03;8.52;;;5.40;;
22070;SDS011;11200;51.488;6.668;2023-04-24T05:15:29;7.93;;;5.65;;
22070;SDS011;11200;51.488;6.668;2023-04-24T05:17:55;6.43;;;5.20;;
22070;SDS011;11200;51.488;6.668;2023-04-24T05:20:21;6.60;;;5.05;;
22070;SDS011;11200;51.488;6.668;2023-04-24T05:22:46;6.22;;;5.07;;
22070;SDS011;11200;51.488;6.668;2023-04-24T05:25:12;5.28;;;4.60;;
22070;SDS011;11200;51.488;6.668;2023-04-24T05:27:37;6.95;;;5.25;;
22070;SDS011;11200;51.488;6.668;2023-04-24T05:30:04;6.25;;;4.65;;
22070;SDS011;11200;51.488;6.668;2023-04-24T05:32:30;5.75;;;4.70;;
22070;SDS011;11200;51.488;6.668;2023-04-24T05:34:55;6.80;;;4.35;;
22070;SDS011;11200;51.488;6.668;2023-04-24T05:37:21;7.70;;;4.55;;
22070;SDS011;11200;51.488;6.668;2023-04-24T05:39:46;6.65;;;4.95;;
22070;SDS011;11200;51.488;6.668;2023-04-24T05:42:12;5.80;;;4.72;;
22070;SDS011;11200;51.488;6.668;2023-04-24T05:44:38;5.50;;;4.90;;
22070;SDS011;11200;51.488;6.668;2023-04-24T05:47:03;6.55;;;4.72;;
22070;SDS011;11200;51.488;6.668;2023-04-24T05:49:31;6.50;;;4.70;;
22070;SDS011;11200;51.488;6.668;2023-04-24T05:51:57;6.13;;;4.95;;
22070;SDS011;11200;51.488;6.668;2023-04-24T05:54:23;5.90;;;4.63;;
22070;SDS011;11200;51.488;6.668;2023-04-24T05:56:51;5.97;;;5.00;;
22070;SDS011;11200;51.488;6.668;2023-04-24T05:59:19;6.38;;;4.85;;
22070;SDS011;11200;51.488;6.668;2023-04-24T06:01:44;6.53;;;5.13;;
22070;SDS011;11200;51.488;6.668;2023-04-24T06:04:10;8.45;;;5.18;;
22070;SDS011;11200;51.488;6.668;2023-04-24T06:06:38;5.45;;;4.95;;
22070;SDS011;11200;51.488;6.668;2023-04-24T06:09:04;5.85;;;5.05;;
22070;SDS011;11200;51.488;6.668;2023-04-24T06:11:30;6.40;;;4.63;;
22070;SDS011;11200;51.488;6.668;2023-04-24T06:13:56;5.28;;;4.78;;
22070;SDS011;11200;51.488;6.668;2023-04-24T06:16:22;5.20;;;4.70;;
22070;SDS011;11200;51.488;6.668;2023-04-24T06:18:47;5.72;;;5.13;;
22070;SDS011;11200;51.488;6.668;2023-04-24T06:21:13;5.72;;;5.03;;
22070;SDS011;11200;51.488;6.668;2023-04-24T06:23:42;7.88;;;4.95;;
22070;SDS011;11200;51.488;6.668;2023-04-24T06:26:08;5.20;;;4.70;;
22070;SDS011;11200;51.488;6.668;2023-04-24T06:28:33;5.38;;;4.60;;
22070;SDS011;11200;51.488;6.668;2023-04-24T06:30:59;6.65;;;4.88;;
22070;SDS011;11200;51.488;6.668;2023-04-24T06:33:25;6.00;;;4.50;;
22070;SDS011;11200;51.488;6.668;2023-04-24T06:35:51;5.15;;;4.32;;
22070;SDS011;11200;51.488;6.668;2023-04-24T06:38:16;6.90;;;4.63;;
22070;SDS011;11200;51.488;6.668;2023-04-24T06:40:42;4.45;;;4.00;;
22070;SDS011;11200;51.488;6.668;2023-04-24T06:43:08;5.05;;;4.55;;
22070;SDS011;11200;51.488;6.668;2023-04-24T06:45:34;5.13;;;3.95;;
22070;SDS011;11200;51.488;6.668;2023-04-24T06:48:00;5.05;;;4.40;;
22070;SDS011;11200;51.488;6.668;2023-04-24T06:50:25;5.15;;;4.38;;
22070;SDS011;11200;51.488;6.668;2023-04-24T06:52:51;4.45;;;3.80;;
22070;SDS011;11200;51.488;6.668;2023-04-24T06:55:17;6.45;;;4.20;;
22070;SDS011;11200;51.488;6.668;2023-04-24T06:57:42;3.97;;;3.47;;
22070;SDS011;11200;51.488;6.668;2023-04-24T07:00:09;4.28;;;3.55;;
22070;SDS011;11200;51.488;6.668;2023-04-24T07:02:36;4.85;;;3.55;;
22070;SDS011;11200;51.488;6.668;2023-04-24T07:05:02;4.90;;;3.50;;
22070;SDS011;11200;51.488;6.668;2023-04-24T07:07:28;4.53;;;3.10;;
22070;SDS011;11200;51.488;6.668;2023-04-24T07:09:54;4.25;;;3.38;;
22070;SDS011;11200;51.488;6.668;2023-04-24T07:12:21;4.30;;;3.40;;
22070;SDS011;11200;51.488;6.668;2023-04-24T07:14:47;3.55;;;3.00;;
22070;SDS011;11200;51.488;6.668;2023-04-24T07:17:13;3.20;;;2.85;;
22070;SDS011;11200;51.488;6.668;2023-04-24T07:19:38;2.80;;;2.50;;
22070;SDS011;11200;51.488;6.668;2023-04-24T07:22:05;3.05;;;2.75;;
22070;SDS011;11200;51.488;6.668;2023-04-24T07:24:31;4.18;;;2.67;;
22070;SDS011;11200;51.488;6.668;2023-04-24T07:27:00;3.13;;;2.50;;
22070;SDS011;11200;51.488;6.668;2023-04-24T07:29:26;2.35;;;2.15;;
22070;SDS011;11200;51.488;6.668;2023-04-24T07:31:52;2.40;;;2.10;;
22070;SDS011;11200;51.488;6.668;2023-04-24T07:34:19;2.85;;;2.20;;
22070;SDS011;11200;51.488;6.668;2023-04-24T07:36:45;2.45;;;1.90;;
22070;SDS011;11200;51.488;6.668;2023-04-24T07:39:10;3.05;;;2.10;;
22070;SDS011;11200;51.488;6.668;2023-04-24T07:41:36;3.72;;;1.90;;
22070;SDS011;11200;51.488;6.668;2023-04-24T07:44:02;2.75;;;1.70;;
22070;SDS011;11200;51.488;6.668;2023-04-24T07:46:29;2.83;;;1.98;;
22070;SDS011;11200;51.488;6.668;2023-04-24T07:48:55;2.00;;;1.80;;
22070;SDS011;11200;51.488;6.668;2023-04-24T07:51:21;1.45;;;1.33;;
22070;SDS011;11200;51.488;6.668;2023-04-24T07:53:47;2.22;;;1.70;;
22070;SDS011;11200;51.488;6.668;2023-04-24T07:56:12;1.83;;;1.70;;
22070;SDS011;11200;51.488;6.668;2023-04-24T07:58:38;1.70;;;1.60;;
22070;SDS011;11200;51.488;6.668;2023-04-24T08:01:03;1.70;;;1.42;;
22070;SDS011;11200;51.488;6.668;2023-04-24T08:03:31;1.50;;;1.33;;
22070;SDS011;11200;51.488;6.668;2023-04-24T08:05:56;1.85;;;1.48;;
22070;SDS011;11200;51.488;6.668;2023-04-24T08:08:23;1.42;;;1.33;;
22070;SDS011;11200;51.488;6.668;2023-04-24T08:10:49;1.40;;;1.30;;
22070;SDS011;11200;51.488;6.668;2023-04-24T08:13:15;2.08;;;1.23;;
22070;SDS011;11200;51.488;6.668;2023-04-24T08:15:41;1.98;;;1.25;;
22070;SDS011;11200;51.488;6.668;2023-04-24T08:18:07;2.13;;;1.13;;
22070;SDS011;11200;51.488;6.668;2023-04-24T08:20:32;1.70;;;1.20;;
22070;SDS011;11200;51.488;6.668;2023-04-24T08:22:58;1.40;;;1.00;;
22070;SDS011;11200;51.488;6.668;2023-04-24T08:25:24;1.42;;;1.30;;
22070;SDS011;11200;51.488;6.668;2023-04-24T08:27:49;1.10;;;1.00;;
22070;SDS011;11200;51.488;6.668;2023-04-24T08:30:15;1.30;;;1.20;;
22070;SDS011;11200;51.488;6.668;2023-04-24T08:32:41;1.23;;;1.00;;
22070;SDS011;11200;51.488;6.668;2023-04-24T08:35:07;0.95;;;0.90;;
22070;SDS011;11200;51.488;6.668;2023-04-24T08:37:34;1.27;;;0.98;;
22070;SDS011;11200;51.488;6.668;2023-04-24T08:40:00;1.48;;;1.10;;
22070;SDS011;11200;51.488;6.668;2023-04-24T08:42:32;1.00;;;0.90;;
22070;SDS011;11200;51.488;6.668;2023-04-24T08:45:01;1.27;;;0.90;;
22070;SDS011;11200;51.488;6.668;2023-04-24T08:47:27;1.13;;;0.90;;
22070;SDS011;11200;51.488;6.668;2023-04-24T08:49:54;1.67;;;1.15;;
22070;SDS011;11200;51.488;6.668;2023-04-24T08:52:22;1.35;;;0.90;;
22070;SDS011;11200;51.488;6.668;2023-04-24T08:54:48;1.15;;;0.90;;
22070;SDS011;11200;51.488;6.668;2023-04-24T08:57:14;1.10;;;0.70;;
22070;SDS011;11200;51.488;6.668;2023-04-24T08:59:41;1.55;;;1.00;;
22070;SDS011;11200;51.488;6.668;2023-04-24T09:02:09;2.28;;;1.08;;
22070;SDS011;11200;51.488;6.668;2023-04-24T09:04:36;1.73;;;1.30;;
22070;SDS011;11200;51.488;6.668;2023-04-24T09:07:03;1.80;;;1.48;;
22070;SDS011;11200;51.488;6.668;2023-04-24T09:09:33;3.20;;;1.75;;
22070;SDS011;11200;51.488;6.668;2023-04-24T09:12:00;2.70;;;1.77;;
22070;SDS011;11200;51.488;6.668;2023-04-24T09:14:27;3.38;;;2.58;;
22070;SDS011;11200;51.488;6.668;2023-04-24T09:16:53;3.50;;;2.78;;
22070;SDS011;11200;51.488;6.668;2023-04-24T09:19:18;2.60;;;2.40;;
22070;SDS011;11200;51.488;6.668;2023-04-24T09:21:47;2.97;;;2.53;;
22070;SDS011;11200;51.488;6.668;2023-04-24T09:24:17;3.08;;;2.60;;
22070;SDS011;11200;51.488;6.668;2023-04-24T09:26:48;3.15;;;2.60;;
22070;SDS011;11200;51.488;6.668;2023-04-24T09:29:20;2.90;;;2.50;;
22070;SDS011;11200;51.488;6.668;2023-04-24T09:31:45;3.38;;;2.67;;
22070;SDS011;11200;51.488;6.668;2023-04-24T09:34:11;3.67;;;2.90;;
22070;SDS011;11200;51.488;6.668;2023-04-24T09:36:38;3.42;;;2.83;;
22070;SDS011;11200;51.488;6.668;2023-04-24T09:39:09;4.57;;;3.17;;
22070;SDS011;11200;51.488;6.668;2023-04-24T09:41:47;4.30;;;2.80;;
22070;SDS011;11200;51.488;6.668;2023-04-24T09:44:15;3.17;;;2.72;;
22070;SDS011;11200;51.488;6.668;2023-04-24T09:46:43;3.58;;;2.83;;
22070;SDS011;11200;51.488;6.668;2023-04-24T09:49:11;3.92;;;2.85;;
22070;SDS011;11200;51.488;6.668;2023-04-24T09:51:39;4.78;;;3.38;;
22070;SDS011;11200;51.488;6.668;2023-04-24T09:54:11;6.65;;;3.10;;
22070;SDS011;11200;51.488;6.668;2023-04-24T09:56:42;4.63;;;2.85;;
22070;SDS011;11200;51.488;6.668;2023-04-24T09:59:10;6.53;;;3.30;;
22070;SDS011;11200;51.488;6.668;2023-04-24T10:01:35;4.55;;;3.38;;
22070;SDS011;11200;51.488;6.668;2023-04-24T10:04:03;4.47;;;3.40;;
22070;SDS011;11200;51.488;6.668;2023-04-24T10:06:35;4.85;;;3.28;;
22070;SDS011;11200;51.488;6.668;2023-04-24T10:09:02;3.88;;;3.05;;
22070;SDS011;11200;51.488;6.668;2023-04-24T10:11:28;4.53;;;3.45;;
22070;SDS011;11200;51.488;6.668;2023-04-24T10:13:55;7.45;;;3.20;;
22070;SDS011;11200;51.488;6.668;2023-04-24T10:16:22;7.55;;;3.42;;
22070;SDS011;11200;51.488;6.668;2023-04-24T10:18:48;4.43;;;2.80;;
22070;SDS011;11200;51.488;6.668;2023-04-24T10:21:14;3.72;;;2.83;;
22070;SDS011;11200;51.488;6.668;2023-04-24T10:23:41;4.85;;;3.00;;
22070;SDS011;11200;51.488;6.668;2023-04-24T10:26:11;5.45;;;3.47;;
22070;SDS011;11200;51.488;6.668;2023-04-24T10:28:43;3.63;;;2.70;;
22070;SDS011;11200;51.488;6.668;2023-04-24T10:31:11;5.65;;;3.05;;
22070;SDS011;11200;51.488;6.668;2023-04-24T10:33:42;4.07;;;3.17;;
22070;SDS011;11200;51.488;6.668;2023-04-24T10:36:09;5.32;;;2.70;;
22070;SDS011;11200;51.488;6.668;2023-04-24T10:38:36;7.20;;;3.20;;
22070;SDS011;11200;51.488;6.668;2023-04-24T10:41:08;5.35;;;3.10;;
22070;SDS011;11200;51.488;6.668;2023-04-24T10:43:39;6.10;;;3.10;;
22070;SDS011;11200;51.488;6.668;2023-04-24T10:46:05;6.65;;;3.00;;
22070;SDS011;11200;51.488;6.668;2023-04-24T10:48:32;5.78;;;3.10;;
22070;SDS011;11200;51.488;6.668;2023-04-24T10:50:58;6.68;;;3.22;;
22070;SDS011;11200;51.488;6.668;2023-04-24T10:53:28;6.72;;;3.00;;
22070;SDS011;11200;51.488;6.668;2023-04-24T10:58:36;7.65;;;3.00;;
22070;SDS011;11200;51.488;6.668;2023-04-24T11:01:05;5.70;;;2.83;;
22070;SDS011;11200;51.488;6.668;2023-04-24T11:03:32;4.05;;;2.70;;
22070;SDS011;11200;51.488;6.668;2023-04-24T11:06:07;6.40;;;3.05;;
22070;SDS011;11200;51.488;6.668;2023-04-24T11:08:43;7.25;;;3.13;;
22070;SDS011;11200;51.488;6.668;2023-04-24T11:11:13;4.68;;;3.08;;
22070;SDS011;11200;51.488;6.668;2023-04-24T11:16:55;5.97;;;3.08;;
22070;SDS011;11200;51.488;6.668;2023-04-24T11:19:26;8.40;;;3.25;;
22070;SDS011;11200;51.488;6.668;2023-04-24T11:22:03;5.32;;;2.90;;
22070;SDS011;11200;51.488;6.668;2023-04-24T11:27:06;6.55;;;3.22;;
22070;SDS011;11200;51.488;6.668;2023-04-24T11:29:43;6.97;;;2.83;;
22070;SDS011;11200;51.488;6.668;2023-04-24T11:32:23;6.60;;;2.90;;
22070;SDS011;11200;51.488;6.668;2023-04-24T11:35:06;5.97;;;2.90;;
22070;SDS011;11200;51.488;6.668;2023-04-24T11:37:36;6.78;;;2.58;;
22070;SDS011;11200;51.488;6.668;2023-04-24T11:40:04;5.35;;;3.00;;
22070;SDS011;11200;51.488;6.668;2023-04-24T11:42:36;6.15;;;2.95;;
22070;SDS011;11200;51.488;6.668;2023-04-24T11:45:06;9.63;;;2.88;;
22070;SDS011;11200;51.488;6.668;2023-04-24T11:47:37;5.82;;;2.85;;
22070;SDS011;11200;51.488;6.668;2023-04-24T11:50:04;5.72;;;2.70;;
22070;SDS011;11200;51.488;6.668;2023-04-24T11:52:31;5.30;;;2.97;;
22070;SDS011;11200;51.488;6.668;2023-04-24T11:54:58;5.25;;;2.67;;
22070;SDS011;11200;51.488;6.668;2023-04-24T11:57:25;5.35;;;2.63;;
22070;SDS011;11200;51.488;6.668;2023-04-24T11:59:58;6.63;;;2.75;;
22070;SDS011;11200;51.488;6.668;2023-04-24T12:02:25;4.95;;;2.75;;
22070;SDS011;11200;51.488;6.668;2023-04-24T12:04:54;4.55;;;2.40;;
22070;SDS011;11200;51.488;6.668;2023-04-24T12:07:21;5.63;;;2.50;;
22070;SDS011;11200;51.488;6.668;2023-04-24T12:09:50;4.82;;;2.72;;
22070;SDS011;11200;51.488;6.668;2023-04-24T12:12:24;7.88;;;3.08;;
22070;SDS011;11200;51.488;6.668;2023-04-24T12:14:54;5.97;;;2.92;;
22070;SDS011;11200;51.488;6.668;2023-04-24T12:17:28;4.10;;;2.35;;
22070;SDS011;11200;51.488;6.668;2023-04-24T12:20:03;4.35;;;2.50;;
22070;SDS011;11200;51.488;6.668;2023-04-24T12:25:28;3.80;;;2.15;;
22070;SDS011;11200;51.488;6.668;2023-04-24T12:28:08;4.32;;;2.38;;
22070;SDS011;11200;51.488;6.668;2023-04-24T12:30:40;4.50;;;2.60;;
22070;SDS011;11200;51.488;6.668;2023-04-24T12:33:16;3.85;;;2.20;;
22070;SDS011;11200;51.488;6.668;2023-04-24T12:35:43;4.70;;;2.35;;
22070;SDS011;11200;51.488;6.668;2023-04-24T12:38:13;2.72;;;2.17;;
22070;SDS011;11200;51.488;6.668;2023-04-24T12:40:41;4.30;;;2.15;;
22070;SDS011;11200;51.488;6.668;2023-04-24T12:43:14;4.72;;;2.30;;
22070;SDS011;11200;51.488;6.668;2023-04-24T12:45:44;5.70;;;2.20;;
22070;SDS011;11200;51.488;6.668;2023-04-24T12:48:10;2.53;;;2.15;;
22070;SDS011;11200;51.488;6.668;2023-04-24T12:50:36;5.07;;;2.47;;
22070;SDS011;11200;51.488;6.668;2023-04-24T12:53:02;4.03;;;2.20;;
22070;SDS011;11200;51.488;6.668;2023-04-24T12:55:28;4.80;;;2.47;;
22070;SDS011;11200;51.488;6.668;2023-04-24T12:57:54;3.10;;;1.98;;
22070;SDS011;11200;51.488;6.668;2023-04-24T13:00:21;3.10;;;2.08;;
22070;SDS011;11200;51.488;6.668;2023-04-24T13:02:48;5.97;;;2.20;;
22070;SDS011;11200;51.488;6.668;2023-04-24T13:05:14;3.22;;;1.92;;
22070;SDS011;11200;51.488;6.668;2023-04-24T13:07:42;4.50;;;1.98;;
22070;SDS011;11200;51.488;6.668;2023-04-24T13:10:08;3.55;;;1.73;;
22070;SDS011;11200;51.488;6.668;2023-04-24T13:12:35;4.13;;;1.80;;
22070;SDS011;11200;51.488;6.668;2023-04-24T13:15:00;6.07;;;1.98;;
22070;SDS011;11200;51.488;6.668;2023-04-24T13:17:26;3.03;;;1.80;;
22070;SDS011;11200;51.488;6.668;2023-04-24T13:19:53;6.03;;;1.90;;
22070;SDS011;11200;51.488;6.668;2023-04-24T13:22:20;3.05;;;1.50;;
22070;SDS011;11200;51.488;6.668;2023-04-24T13:24:46;2.40;;;1.50;;
22070;SDS011;11200;51.488;6.668;2023-04-24T13:27:15;2.05;;;1.50;;
22070;SDS011;11200;51.488;6.668;2023-04-24T13:29:41;2.08;;;1.48;;
22070;SDS011;11200;51.488;6.668;2023-04-24T13:32:07;2.80;;;1.60;;
22070;SDS011;11200;51.488;6.668;2023-04-24T13:34:34;3.55;;;1.63;;
22070;SDS011;11200;51.488;6.668;2023-04-24T13:37:00;4.47;;;1.58;;
22070;SDS011;11200;51.488;6.668;2023-04-24T13:39:26;3.42;;;1.17;;
22070;SDS011;11200;51.488;6.668;2023-04-24T13:41:52;4.35;;;1.50;;
22070;SDS011;11200;51.488;6.668;2023-04-24T13:44:18;2.83;;;1.42;;
22070;SDS011;11200;51.488;6.668;2023-04-24T13:46:46;3.33;;;1.40;;
22070;SDS011;11200;51.488;6.668;2023-04-24T13:49:13;2.50;;;1.17;;
22070;SDS011;11200;51.488;6.668;2023-04-24T13:51:39;3.63;;;1.60;;
22070;SDS011;11200;51.488;6.668;2023-04-24T13:54:06;4.32;;;1.38;;
22070;SDS011;11200;51.488;6.668;2023-04-24T13:56:32;3.28;;;1.30;;
22070;SDS011;11200;51.488;6.668;2023-04-24T13:58:57;3.15;;;1.48;;
22070;SDS011;11200;51.488;6.668;2023-04-24T14:01:23;2.58;;;1.70;;
22070;SDS011;11200;51.488;6.668;2023-04-24T14:03:50;3.75;;;1.60;;
22070;SDS011;11200;51.488;6.668;2023-04-24T14:06:17;3.10;;;1.55;;
22070;SDS011;11200;51.488;6.668;2023-04-24T14:08:46;3.28;;;1.50;;
22070;SDS011;11200;51.488;6.668;2023-04-24T14:11:12;3.15;;;1.40;;
22070;SDS011;11200;51.488;6.668;2023-04-24T14:13:38;3.05;;;1.38;;
22070;SDS011;11200;51.488;6.668;2023-04-24T14:16:05;2.15;;;1.40;;
22070;SDS011;11200;51.488;6.668;2023-04-24T14:18:31;3.13;;;1.60;;
22070;SDS011;11200;51.488;6.668;2023-04-24T14:20:57;2.67;;;1.45;;
22070;SDS011;11200;51.488;6.668;2023-04-24T14:23:22;2.25;;;1.20;;
22070;SDS011;11200;51.488;6.668;2023-04-24T14:25:48;2.78;;;1.33;;
22070;SDS011;11200;51.488;6.668;2023-04-24T14:28:17;3.03;;;1.50;;
22070;SDS011;11200;51.488;6.668;2023-04-24T14:30:43;2.60;;;1.45;;
22070;SDS011;11200;51.488;6.668;2023-04-24T14:33:08;3.28;;;1.40;;
22070;SDS011;11200;51.488;6.668;2023-04-24T14:35:35;2.55;;;1.42;;
22070;SDS011;11200;51.488;6.668;2023-04-24T14:38:01;2.72;;;1.30;;
22070;SDS011;11200;51.488;6.668;2023-04-24T14:40:27;2.53;;;1.40;;
22070;SDS011;11200;51.488;6.668;2023-04-24T14:42:52;2.47;;;1.60;;
22070;SDS011;11200;51.488;6.668;2023-04-24T14:45:18;3.15;;;1.33;;
22070;SDS011;11200;51.488;6.668;2023-04-24T14:47:44;2.67;;;1.70;;
22070;SDS011;11200;51.488;6.668;2023-04-24T14:50:10;2.47;;;1.40;;
22070;SDS011;11200;51.488;6.668;2023-04-24T14:52:37;1.92;;;1.20;;
22070;SDS011;11200;51.488;6.668;2023-04-24T14:55:04;2.10;;;1.33;;
22070;SDS011;11200;51.488;6.668;2023-04-24T14:57:31;2.78;;;1.60;;
22070;SDS011;11200;51.488;6.668;2023-04-24T14:59:57;3.08;;;1.77;;
22070;SDS011;11200;51.488;6.668;2023-04-24T15:02:23;4.60;;;1.40;;
22070;SDS011;11200;51.488;6.668;2023-04-24T15:04:49;3.55;;;1.42;;
22070;SDS011;11200;51.488;6.668;2023-04-24T15:07:14;2.88;;;1.30;;
22070;SDS011;11200;51.488;6.668;2023-04-24T15:09:40;2.85;;;1.50;;
22070;SDS011;11200;51.488;6.668;2023-04-24T15:12:05;2.92;;;1.45;;
22070;SDS011;11200;51.488;6.668;2023-04-24T15:14:31;2.55;;;1.20;;
22070;SDS011;11200;51.488;6.668;2023-04-24T15:16:57;1.63;;;1.10;;
22070;SDS011;11200;51.488;6.668;2023-04-24T15:19:23;2.55;;;1.38;;
22070;SDS011;11200;51.488;6.668;2023-04-24T15:21:48;2.88;;;1.55;;
22070;SDS011;11200;51.488;6.668;2023-04-24T15:24:14;2.55;;;1.23;;
22070;SDS011;11200;51.488;6.668;2023-04-24T15:26:39;3.58;;;1.33;;
22070;SDS011;11200;51.488;6.668;2023-04-24T15:29:05;1.95;;;1.33;;
22070;SDS011;11200;51.488;6.668;2023-04-24T15:31:31;3.38;;;1.15;;
22070;SDS011;11200;51.488;6.668;2023-04-24T15:33:56;2.08;;;1.10;;
22070;SDS011;11200;51.488;6.668;2023-04-24T15:36:22;2.30;;;1.52;;
22070;SDS011;11200;51.488;6.668;2023-04-24T15:38:52;1.48;;;0.93;;
22070;SDS011;11200;51.488;6.668;2023-04-24T15:41:18;1.90;;;1.30;;
22070;SDS011;11200;51.488;6.668;2023-04-24T15:43:43;4.00;;;1.40;;
22070;SDS011;11200;51.488;6.668;2023-04-24T15:46:09;3.03;;;1.33;;
22070;SDS011;11200;51.488;6.668;2023-04-24T15:48:35;2.75;;;1.50;;
22070;SDS011;11200;51.488;6.668;2023-04-24T15:51:03;1.92;;;1.20;;
22070;SDS011;11200;51.488;6.668;2023-04-24T15:53:28;1.83;;;1.20;;
22070;SDS011;11200;51.488;6.668;2023-04-24T15:55:54;2.42;;;1.48;;
22070;SDS011;11200;51.488;6.668;2023-04-24T15:58:22;2.08;;;1.02;;
22070;SDS011;11200;51.488;6.668;2023-04-24T16:00:47;1.30;;;1.20;;
22070;SDS011;11200;51.488;6.668;2023-04-24T16:03:13;2.58;;;1.10;;
22070;SDS011;11200;51.488;6.668;2023-04-24T16:05:39;1.33;;;1.20;;
22070;SDS011;11200;51.488;6.668;2023-04-24T16:08:06;2.28;;;1.30;;
22070;SDS011;11200;51.488;6.668;2023-04-24T16:10:31;1.40;;;1.15;;
22070;SDS011;11200;51.488;6.668;2023-04-24T16:12:57;1.85;;;1.30;;
22070;SDS011;11200;51.488;6.668;2023-04-24T16:15:26;2.33;;;1.40;;
22070;SDS011;11200;51.488;6.668;2023-04-24T16:17:52;2.72;;;1.50;;
22070;SDS011;11200;51.488;6.668;2023-04-24T16:20:18;2.72;;;1.38;;
22070;SDS011;11200;51.488;6.668;2023-04-24T16:22:44;2.95;;;1.42;;
22070;SDS011;11200;51.488;6.668;2023-04-24T16:25:11;1.92;;;1.40;;
22070;SDS011;11200;51.488;6.668;2023-04-24T16:27:37;2.33;;;1.33;;
22070;SDS011;11200;51.488;6.668;2023-04-24T16:30:03;2.35;;;1.40;;
22070;SDS011;11200;51.488;6.668;2023-04-24T16:32:33;1.98;;;1.25;;
22070;SDS011;11200;51.488;6.668;2023-04-24T16:35:01;2.08;;;1.40;;
22070;SDS011;11200;51.488;6.668;2023-04-24T16:37:27;2.28;;;1.38;;
22070;SDS011;11200;51.488;6.668;2023-04-24T16:39:53;2.15;;;1.40;;
22070;SDS011;11200;51.488;6.668;2023-04-24T16:42:19;1.42;;;1.13;;
22070;SDS011;11200;51.488;6.668;2023-04-24T16:44:46;2.25;;;1.60;;
22070;SDS011;11200;51.488;6.668;2023-04-24T16:47:12;3.15;;;1.30;;
22070;SDS011;11200;51.488;6.668;2023-04-24T16:49:39;1.83;;;1.40;;
22070;SDS011;11200;51.488;6.668;2023-04-24T16:52:05;1.83;;;1.45;;
22070;SDS011;11200;51.488;6.668;2023-04-24T16:54:32;3.13;;;1.52;;
22070;SDS011;11200;51.488;6.668;2023-04-24T16:57:04;2.63;;;1.50;;
22070;SDS011;11200;51.488;6.668;2023-04-24T16:59:31;2.88;;;1.38;;
22070;SDS011;11200;51.488;6.668;2023-04-24T17:01:58;3.15;;;1.55;;
22070;SDS011;11200;51.488;6.668;2023-04-24T17:04:27;3.80;;;1.65;;
22070;SDS011;11200;51.488;6.668;2023-04-24T17:06:53;3.53;;;1.70;;
22070;SDS011;11200;51.488;6.668;2023-04-24T17:09:19;2.03;;;1.60;;
22070;SDS011;11200;51.488;6.668;2023-04-24T17:11:45;2.58;;;1.50;;
22070;SDS011;11200;51.488;6.668;2023-04-24T17:14:11;3.03;;;1.80;;
22070;SDS011;11200;51.488;6.668;2023-04-24T17:16:37;2.67;;;1.50;;
22070;SDS011;11200;51.488;6.668;2023-04-24T17:19:04;4.90;;;1.63;;
22070;SDS011;11200;51.488;6.668;2023-04-24T17:21:30;3.25;;;1.70;;
22070;SDS011;11200;51.488;6.668;2023-04-24T17:23:55;3.28;;;1.50;;
22070;SDS011;11200;51.488;6.668;2023-04-24T17:26:21;4.03;;;1.90;;
22070;SDS011;11200;51.488;6.668;2023-04-24T17:28:47;3.55;;;1.70;;
22070;SDS011;11200;51.488;6.668;2023-04-24T17:31:13;2.03;;;1.70;;
22070;SDS011;11200;51.488;6.668;2023-04-24T17:33:38;3.42;;;1.88;;
22070;SDS011;11200;51.488;6.668;2023-04-24T17:36:04;3.78;;;2.00;;
22070;SDS011;11200;51.488;6.668;2023-04-24T17:38:31;4.00;;;1.92;;
22070;SDS011;11200;51.488;6.668;2023-04-24T17:40:57;3.15;;;1.70;;
22070;SDS011;11200;51.488;6.668;2023-04-24T17:43:24;2.88;;;1.90;;
22070;SDS011;11200;51.488;6.668;2023-04-24T17:45:52;3.28;;;1.70;;
22070;SDS011;11200;51.488;6.668;2023-04-24T17:48:23;3.58;;;1.77;;
22070;SDS011;11200;51.488;6.668;2023-04-24T17:50:48;2.35;;;1.75;;
22070;SDS011;11200;51.488;6.668;2023-04-24T17:53:14;3.47;;;1.80;;
22070;SDS011;11200;51.488;6.668;2023-04-24T17:55:42;3.17;;;1.85;;
22070;SDS011;11200;51.488;6.668;2023-04-24T17:58:08;3.45;;;2.03;;
22070;SDS011;11200;51.488;6.668;2023-04-24T18:00:37;2.70;;;1.70;;
22070;SDS011;11200;51.488;6.668;2023-04-24T18:03:03;3.00;;;1.80;;
22070;SDS011;11200;51.488;6.668;2023-04-24T18:05:31;3.25;;;1.98;;
22070;SDS011;11200;51.488;6.668;2023-04-24T18:07:58;4.43;;;2.22;;
22070;SDS011;11200;51.488;6.668;2023-04-24T18:10:24;3.33;;;1.90;;
22070;SDS011;11200;51.488;6.668;2023-04-24T18:12:52;4.28;;;2.05;;
22070;SDS011;11200;51.488;6.668;2023-04-24T18:15:18;4.60;;;2.35;;
22070;SDS011;11200;51.488;6.668;2023-04-24T18:17:44;3.42;;;1.90;;
22070;SDS011;11200;51.488;6.668;2023-04-24T18:20:10;3.63;;;2.00;;
22070;SDS011;11200;51.488;6.668;2023-04-24T18:22:37;3.00;;;2.08;;
22070;SDS011;11200;51.488;6.668;2023-04-24T18:25:04;3.72;;;2.10;;
22070;SDS011;11200;51.488;6.668;2023-04-24T18:27:30;2.88;;;2.00;;
22070;SDS011;11200;51.488;6.668;2023-04-24T18:29:56;5.78;;;2.17;;
22070;SDS011;11200;51.488;6.668;2023-04-24T18:32:22;2.83;;;2.10;;
22070;SDS011;11200;51.488;6.668;2023-04-24T18:34:48;2.88;;;1.98;;
22070;SDS011;11200;51.488;6.668;2023-04-24T18:37:14;2.70;;;1.95;;
22070;SDS011;11200;51.488;6.668;2023-04-24T18:39:39;4.28;;;2.28;;
22070;SDS011;11200;51.488;6.668;2023-04-24T18:42:05;3.97;;;2.22;;
22070;SDS011;11200;51.488;6.668;2023-04-24T18:44:32;3.47;;;2.50;;
22070;SDS011;11200;51.488;6.668;2023-04-24T18:46:58;4.47;;;2.40;;
22070;SDS011;11200;51.488;6.668;2023-04-24T18:49:24;2.80;;;2.00;;
22070;SDS011;11200;51.488;6.668;2023-04-24T18:51:49;3.40;;;2.30;;